Time;durP1;ratioP1;P1;durP2;ratioP2;P2;SDS_P1;SDS_P2;PMS_P1;PMS_P2;Temp;Humidity;BMP_temperature;BMP_pressure;BME280_temperature;BME280_humidity;BME280_pressure;Samples;Min_cycle;Max_cycle;Signal;HPM_P1;HPM_P2
2021/06/12 00:01:25;;;;;;;9.45;5.22;;;;;;;17.87;66.85;101575.94;5040608;28;20021;-84
2021/06/12 00:03:51;;;;;;;10.30;5.18;;;;;;;17.86;66.84;101574.31;5039413;28;20403;-84
2021/06/12 00:06:16;;;;;;;10.40;5.07;;;;;;;17.89;66.87;101564.81;5040895;28;20638;-84
2021/06/12 00:08:45;;;;;;;10.77;4.93;;;;;;;17.88;67.09;101568.63;5030976;28;20029;-84
2021/06/12 00:11:11;;;;;;;13.07;5.00;;;;;;;17.92;66.78;101564.25;5040358;28;20026;-85
2021/06/12 00:13:39;;;;;;;6.15;4.95;;;;;;;17.92;66.89;101565.06;5028300;28;20112;-84
2021/06/12 00:16:07;;;;;;;9.25;5.30;;;;;;;17.90;67.23;101559.13;5028126;28;20040;-85
2021/06/12 00:18:32;;;;;;;8.48;5.78;;;;;;;17.83;67.52;101564.03;5028127;28;20052;-83
2021/06/12 00:21:02;;;;;;;7.55;5.57;;;;;;;17.76;67.80;101564.31;5028232;28;20028;-84
2021/06/12 00:23:30;;;;;;;6.82;5.75;;;;;;;17.77;67.71;101570.53;5026071;28;20087;-85
2021/06/12 00:25:59;;;;;;;8.40;5.60;;;;;;;17.73;68.06;101570.28;5022822;28;20398;-85
2021/06/12 00:28:25;;;;;;;12.77;5.90;;;;;;;17.68;68.32;101570.31;5034071;28;20032;-85
2021/06/12 00:30:50;;;;;;;9.43;5.03;;;;;;;17.66;68.47;101564.31;5038458;28;20025;-85
2021/06/12 00:33:16;;;;;;;13.95;6.15;;;;;;;17.69;68.53;101568.41;5030334;28;20026;-84
2021/06/12 00:35:44;;;;;;;9.82;5.80;;;;;;;17.71;68.37;101558.09;5032891;28;20044;-85
2021/06/12 00:38:10;;;;;;;10.90;6.03;;;;;;;17.77;68.81;101560.53;5042271;28;20086;-85
2021/06/12 00:40:40;;;;;;;11.73;6.15;;;;;;;17.83;68.70;101553.19;5016909;28;20032;-85
2021/06/12 00:43:05;;;;;;;7.43;5.57;;;;;;;17.91;68.92;101554.50;5025892;28;20111;-84
2021/06/12 00:45:32;;;;;;;9.38;6.28;;;;;;;17.93;68.88;101546.91;5027342;28;20163;-85
2021/06/12 00:48:00;;;;;;;8.27;5.70;;;;;;;17.96;69.11;101541.75;5032737;28;20032;-84
2021/06/12 00:50:34;;;;;;;8.60;6.03;;;;;;;17.99;69.07;101534.97;5032390;28;20053;-84
2021/06/12 00:53:02;;;;;;;10.23;6.20;;;;;;;17.96;69.06;101536.34;5032439;28;20056;-84
2021/06/12 00:55:31;;;;;;;8.55;6.15;;;;;;;17.92;69.65;101527.13;5043115;28;20067;-84
2021/06/12 00:58:00;;;;;;;7.35;6.60;;;;;;;17.86;70.30;101524.72;5048785;28;20025;-84
2021/06/12 01:00:26;;;;;;;9.52;6.75;;;;;;;17.81;70.24;101528.25;5032452;28;20051;-84
2021/06/12 01:02:52;;;;;;;7.53;6.30;;;;;;;17.77;70.68;101514.47;5027488;28;20447;-84
2021/06/12 01:05:21;;;;;;;7.43;6.28;;;;;;;17.67;71.30;101516.34;5045870;28;20075;-84
2021/06/12 01:07:47;;;;;;;10.80;6.57;;;;;;;17.66;71.37;101520.97;5053030;28;20017;-85
2021/06/12 01:10:15;;;;;;;10.25;6.75;;;;;;;17.60;71.85;101505.03;5041999;28;20021;-85
2021/06/12 01:13:10;;;;;;;7.15;6.43;;;;;;;17.56;72.06;101503.91;5051727;28;20033;-85
2021/06/12 01:15:56;;;;;;;;;;;;;;;17.48;71.59;101502.59;5029247;28;20079;-85
2021/06/12 01:18:28;;;;;;;9.57;6.68;;;;;;;17.46;71.93;101504.78;4991492;28;19974;-85
2021/06/12 01:21:02;;;;;;;7.20;6.45;;;;;;;17.44;72.00;101498.84;5034108;28;20694;-84
2021/06/12 01:23:54;;;;;;;;;;;;;;;17.35;72.42;101501.28;5033238;28;20112;-85
2021/06/12 01:26:47;;;;;;;8.05;7.00;;;;;;;17.44;71.88;101507.78;5028520;28;20326;-83
2021/06/12 01:29:22;;;;;;;8.55;6.47;;;;;;;17.42;72.35;101503.72;5023380;28;20402;-84
2021/06/12 01:31:52;;;;;;;8.25;6.53;;;;;;;17.43;72.29;101510.75;5041563;28;20025;-85
2021/06/12 01:34:20;;;;;;;6.82;6.13;;;;;;;17.41;72.48;101518.31;5040825;28;20064;-85
2021/06/12 01:36:47;;;;;;;7.60;6.47;;;;;;;17.45;72.34;101514.00;5042052;28;20033;-84
2021/06/12 01:39:14;;;;;;;8.40;6.75;;;;;;;17.44;72.23;101504.25;5034635;28;20025;-85
2021/06/12 01:41:42;;;;;;;8.68;7.05;;;;;;;17.44;72.08;101506.97;5038190;28;20045;-86
2021/06/12 01:44:08;;;;;;;9.88;6.75;;;;;;;17.44;71.93;101505.06;5033198;28;20025;-85
2021/06/12 01:46:37;;;;;;;9.75;6.68;;;;;;;17.45;72.31;101505.88;5034298;28;20039;-85
2021/06/12 01:49:03;;;;;;;8.25;6.72;;;;;;;17.53;71.85;101503.38;5028989;28;20025;-85
2021/06/12 01:51:29;;;;;;;9.30;7.35;;;;;;;17.62;71.80;101502.84;5044526;28;20040;-82
2021/06/12 01:53:56;;;;;;;9.18;7.40;;;;;;;17.68;71.61;101499.84;5031377;28;20044;-85
2021/06/12 01:56:26;;;;;;;8.30;6.22;;;;;;;17.65;71.83;101496.84;5042780;28;20103;-84
2021/06/12 01:58:52;;;;;;;7.32;6.35;;;;;;;17.71;71.54;101495.78;5040849;28;20063;-85
2021/06/12 02:01:22;;;;;;;11.10;6.95;;;;;;;17.75;71.31;101492.22;5047315;28;20057;-85
2021/06/12 02:03:48;;;;;;;9.68;6.60;;;;;;;17.79;71.48;101487.09;5049485;28;20643;-85
2021/06/12 02:06:16;;;;;;;8.32;6.78;;;;;;;17.79;71.16;101481.66;5036451;28;20031;-85
2021/06/12 02:08:43;;;;;;;7.45;6.38;;;;;;;17.79;71.29;101485.19;5034572;28;20485;-85
2021/06/12 02:11:12;;;;;;;8.45;6.63;;;;;;;17.80;71.31;101489.50;5042617;28;20029;-84
2021/06/12 02:13:39;;;;;;;10.10;7.03;;;;;;;17.79;71.53;101485.19;5045131;28;20494;-83
2021/06/12 02:16:05;;;;;;;12.95;6.90;;;;;;;17.77;71.38;101487.34;5048980;28;20017;-85
2021/06/12 02:18:32;;;;;;;12.55;7.70;;;;;;;17.74;71.76;101485.19;5035065;28;20183;-85
2021/06/12 02:20:59;;;;;;;10.18;7.45;;;;;;;17.75;71.62;101481.38;5047729;28;20044;-85
2021/06/12 02:23:28;;;;;;;12.50;6.75;;;;;;;17.80;71.74;101489.50;5034288;28;20036;-86
2021/06/12 02:25:54;;;;;;;8.57;6.50;;;;;;;17.81;71.60;101488.41;5038107;28;20112;-84
2021/06/12 02:28:23;;;;;;;8.35;5.95;;;;;;;17.79;71.44;101482.47;5039697;28;20024;-85
2021/06/12 02:30:57;;;;;;;11.00;6.85;;;;;;;17.71;72.26;101479.50;5047374;28;20021;-84
2021/06/12 02:33:25;;;;;;;8.13;7.00;;;;;;;17.72;72.07;101481.94;5052672;28;20029;-85
2021/06/12 02:35:53;;;;;;;9.00;6.95;;;;;;;17.70;72.50;101478.69;5047102;28;20736;-85
2021/06/12 02:38:18;;;;;;;7.80;7.00;;;;;;;17.68;72.58;101478.16;5021829;28;20045;-85
2021/06/12 02:40:44;;;;;;;8.95;7.07;;;;;;;17.70;72.49;101484.13;5044417;28;20027;-84
2021/06/12 02:43:09;;;;;;;7.90;7.10;;;;;;;17.67;72.39;101490.06;5034473;28;20133;-84
2021/06/12 02:45:35;;;;;;;11.80;7.22;;;;;;;17.72;72.50;101479.22;5036723;28;20532;-85
2021/06/12 02:48:05;;;;;;;7.50;6.50;;;;;;;17.72;72.52;101481.94;5033218;28;20052;-84
2021/06/12 02:50:34;;;;;;;12.20;7.40;;;;;;;17.76;72.40;101485.72;5037427;28;20024;-86
2021/06/12 02:53:04;;;;;;;7.95;6.65;;;;;;;17.76;72.31;101491.13;5032984;28;20035;-85
2021/06/12 02:55:31;;;;;;;7.38;6.60;;;;;;;17.78;72.37;101488.97;5037675;28;20079;-85
2021/06/12 02:57:57;;;;;;;9.63;6.40;;;;;;;17.80;71.99;101494.94;5043827;28;20032;-84
2021/06/12 03:00:23;;;;;;;8.38;6.47;;;;;;;17.83;72.13;101492.75;5035187;28;20032;-83
2021/06/12 03:02:51;;;;;;;9.63;6.07;;;;;;;17.87;71.99;101491.09;5029784;28;20020;-84
2021/06/12 03:05:23;;;;;;;7.97;6.90;;;;;;;17.91;72.19;101478.59;5032055;28;20032;-84
2021/06/12 03:07:52;;;;;;;10.50;6.65;;;;;;;17.95;72.73;101475.03;5031445;28;20017;-85
2021/06/12 03:10:18;;;;;;;8.10;7.30;;;;;;;18.01;72.91;101489.41;5047908;28;20025;-85
2021/06/12 03:12:48;;;;;;;9.40;7.13;;;;;;;18.05;72.92;101487.75;5048159;28;20036;-83
2021/06/12 03:15:15;;;;;;;9.32;6.63;;;;;;;18.06;73.04;101489.38;5036378;28;20041;-85
2021/06/12 03:17:43;;;;;;;9.82;7.70;;;;;;;17.99;73.85;101486.97;5046074;28;20017;-85
2021/06/12 03:20:13;;;;;;;11.35;7.70;;;;;;;17.96;74.07;101487.53;5028394;28;20024;-84
2021/06/12 03:22:39;;;;;;;8.68;6.75;;;;;;;17.97;73.91;101493.78;5031308;28;20018;-85
2021/06/12 03:25:07;;;;;;;9.30;7.72;;;;;;;17.99;74.32;101483.44;5025794;28;20082;-83
2021/06/12 03:27:33;;;;;;;9.32;7.72;;;;;;;17.96;74.67;101487.53;5046806;28;20037;-85
2021/06/12 03:29:59;;;;;;;8.80;6.82;;;;;;;17.95;75.06;101495.91;5032531;28;20025;-85
2021/06/12 03:32:26;;;;;;;9.38;7.93;;;;;;;17.98;75.14;101487.25;5029771;28;20075;-85
2021/06/12 03:34:52;;;;;;;13.20;7.47;;;;;;;18.02;74.78;101483.69;5035476;28;20475;-84
2021/06/12 03:37:17;;;;;;;9.90;7.80;;;;;;;18.08;75.27;101476.34;5034828;28;20029;-83
2021/06/12 03:39:43;;;;;;;8.45;7.60;;;;;;;18.14;74.90;101482.56;5042919;28;20494;-85
2021/06/12 03:42:09;;;;;;;9.75;7.13;;;;;;;18.16;74.88;101485.81;5034316;28;20028;-84
2021/06/12 03:44:37;;;;;;;10.95;7.45;;;;;;;18.15;75.02;101485.00;5031138;28;20031;-84
2021/06/12 03:47:05;;;;;;;8.73;7.75;;;;;;;18.24;74.94;101482.47;5026825;28;20033;-84
2021/06/12 03:49:31;;;;;;;10.07;7.43;;;;;;;18.28;74.77;101467.25;5041483;28;20032;-84
2021/06/12 03:51:57;;;;;;;11.23;7.90;;;;;;;18.32;74.90;101468.34;5047869;28;20096;-85
2021/06/12 03:54:23;;;;;;;8.82;7.93;;;;;;;18.32;74.94;101473.75;5035748;28;20033;-86
2021/06/12 03:56:53;;;;;;;8.77;7.47;;;;;;;18.31;75.42;101472.09;5037433;28;20028;-84
2021/06/12 03:59:18;;;;;;;8.85;7.95;;;;;;;18.30;75.17;101471.31;5031770;28;20115;-85
2021/06/12 04:01:47;;;;;;;9.20;7.63;;;;;;;18.27;75.53;101462.91;5039296;28;20112;-85
2021/06/12 04:04:12;;;;;;;8.85;7.32;;;;;;;18.26;75.50;101472.97;5044967;28;20013;-85
2021/06/12 04:06:38;;;;;;;8.23;7.38;;;;;;;18.28;75.84;101473.50;5040897;28;20103;-84
2021/06/12 04:09:03;;;;;;;8.20;7.40;;;;;;;18.29;75.90;101469.69;5052499;28;20094;-85
2021/06/12 04:11:29;;;;;;;8.27;7.47;;;;;;;18.28;75.91;101468.06;5051063;28;20032;-84
2021/06/12 04:13:54;;;;;;;11.55;8.38;;;;;;;18.28;76.21;101478.09;5033694;28;20368;-84
2021/06/12 04:16:20;;;;;;;8.95;7.78;;;;;;;18.32;76.03;101480.00;5040929;28;20025;-86
2021/06/12 04:18:45;;;;;;;8.98;7.22;;;;;;;18.19;77.51;101494.19;5032041;28;20017;-85
2021/06/12 04:21:11;;;;;;;7.40;6.68;;;;;;;18.11;79.66;101497.47;5032474;28;20103;-85
2021/06/12 04:23:36;;;;;;;8.05;7.25;;;;;;;17.95;81.58;101496.72;5047814;28;20017;-84
2021/06/12 04:26:02;;;;;;;8.25;7.07;;;;;;;17.85;82.86;101502.22;5027700;28;20025;-84
2021/06/12 04:28:28;;;;;;;8.45;6.88;;;;;;;17.76;83.61;101503.88;5044779;28;20090;-83
2021/06/12 04:30:53;;;;;;;8.23;7.40;;;;;;;17.66;84.57;101512.84;5027148;28;20112;-83
2021/06/12 04:33:20;;;;;;;8.75;7.18;;;;;;;17.55;85.74;101507.72;5045433;28;20052;-85
2021/06/12 04:35:45;;;;;;;8.00;7.20;;;;;;;17.44;86.62;101496.13;5027335;28;20108;-83
2021/06/12 04:38:11;;;;;;;9.82;6.50;;;;;;;17.41;86.58;101512.91;5031611;28;20120;-85
2021/06/12 04:40:37;;;;;;;7.70;6.85;;;;;;;17.46;85.89;101504.78;5033066;28;20025;-84
2021/06/12 04:43:07;;;;;;;9.15;6.15;;;;;;;17.50;85.47;101505.84;5033902;28;20028;-84
2021/06/12 04:45:33;;;;;;;9.25;5.72;;;;;;;17.48;86.28;101513.44;5037230;28;20032;-84
2021/06/12 04:48:00;;;;;;;8.60;6.28;;;;;;;17.42;88.00;101503.72;5041453;28;20045;-84
2021/06/12 04:50:28;;;;;;;10.63;7.05;;;;;;;17.33;89.00;101517.00;5040407;28;20016;-83
2021/06/12 04:52:53;;;;;;;9.15;7.50;;;;;;;17.19;90.66;101508.63;5028210;28;20017;-83
2021/06/12 04:55:19;;;;;;;12.27;8.32;;;;;;;17.09;92.04;101505.94;5048020;28;20028;-83
2021/06/12 04:57:45;;;;;;;13.35;8.90;;;;;;;17.05;92.84;101502.13;5028395;28;20026;-83
2021/06/12 05:00:13;;;;;;;12.40;9.55;;;;;;;16.99;93.96;101491.59;5032118;28;20029;-83
2021/06/12 05:02:39;;;;;;;12.40;10.40;;;;;;;16.97;94.63;101486.47;5031946;28;20724;-84
2021/06/12 05:05:10;;;;;;;13.90;10.88;;;;;;;17.05;93.96;101474.25;5036977;28;20016;-83
2021/06/12 05:07:36;;;;;;;13.88;10.80;;;;;;;17.18;92.88;101471.78;5047258;28;20017;-83
2021/06/12 05:10:04;;;;;;;15.07;12.07;;;;;;;17.31;92.66;101458.78;5030019;28;20044;-84
2021/06/12 05:12:30;;;;;;;15.80;12.15;;;;;;;17.36;92.96;101456.84;5034566;28;20021;-84
2021/06/12 05:14:58;;;;;;;12.57;10.23;;;;;;;17.61;90.65;101452.44;5033636;28;20034;-83
2021/06/12 05:17:24;;;;;;;12.73;10.45;;;;;;;17.75;90.41;101442.63;5034358;28;20804;-83
2021/06/12 05:19:49;;;;;;;12.10;10.15;;;;;;;17.90;89.75;101444.44;5033822;28;20025;-83
2021/06/12 05:22:15;;;;;;;13.68;9.95;;;;;;;18.04;88.56;101437.31;5030902;28;20052;-83
2021/06/12 05:24:40;;;;;;;12.73;9.57;;;;;;;18.17;87.93;101441.31;5028554;28;20365;-83
2021/06/12 05:27:07;;;;;;;11.10;9.98;;;;;;;18.33;87.00;101446.34;5030190;28;20487;-83
2021/06/12 05:29:33;;;;;;;12.85;10.40;;;;;;;18.41;87.53;101434.06;5042929;28;20087;-83
2021/06/12 05:31:58;;;;;;;10.95;9.73;;;;;;;18.46;87.54;101433.22;5030049;28;20918;-84
2021/06/12 05:34:24;;;;;;;9.02;7.80;;;;;;;18.64;86.14;101438.78;5041059;28;20124;-83
2021/06/12 05:36:50;;;;;;;10.57;8.23;;;;;;;18.84;85.19;101440.47;5019681;28;20063;-84
2021/06/12 05:39:15;;;;;;;9.43;8.23;;;;;;;19.00;84.32;101433.81;5036260;28;20082;-84
2021/06/12 05:41:41;;;;;;;9.52;8.48;;;;;;;19.10;83.56;101438.34;5041872;28;20136;-83
2021/06/12 05:44:07;;;;;;;11.73;8.98;;;;;;;18.92;85.07;101445.31;5023302;28;20036;-83
2021/06/12 05:46:32;;;;;;;11.20;9.23;;;;;;;18.79;84.96;101445.97;5025407;28;20040;-83
2021/06/12 05:48:59;;;;;;;11.02;9.32;;;;;;;18.80;85.22;101447.59;5029561;28;20035;-84
2021/06/12 05:51:25;;;;;;;11.40;9.43;;;;;;;18.72;85.88;101456.38;5029200;28;20402;-83
2021/06/12 05:53:51;;;;;;;11.20;9.95;;;;;;;18.87;84.54;101450.78;5028583;28;20020;-83
2021/06/12 05:56:16;;;;;;;12.13;9.80;;;;;;;18.98;83.94;101451.50;5033101;28;20035;-83
2021/06/12 05:58:42;;;;;;;12.27;10.98;;;;;;;18.81;85.35;101454.63;5027292;28;20053;-84
2021/06/12 06:01:09;;;;;;;12.73;11.07;;;;;;;18.84;84.97;101456.78;5029466;28;20020;-83
2021/06/12 06:03:35;;;;;;;11.60;10.40;;;;;;;18.92;84.36;101452.66;5032669;28;20495;-84
2021/06/12 06:06:00;;;;;;;13.77;10.80;;;;;;;18.86;84.84;101451.91;5029372;28;20098;-83
2021/06/12 06:08:26;;;;;;;12.98;11.07;;;;;;;18.67;86.39;101457.22;5032046;28;20024;-83
2021/06/12 06:10:51;;;;;;;12.40;10.45;;;;;;;18.74;85.55;101448.75;5035042;28;20116;-85
2021/06/12 06:13:17;;;;;;;14.77;10.95;;;;;;;18.67;86.49;101451.81;5025029;28;20036;-83
2021/06/12 06:15:43;;;;;;;11.07;9.57;;;;;;;18.97;84.55;101461.53;5043419;28;20025;-84
2021/06/12 06:18:09;;;;;;;11.20;9.73;;;;;;;19.07;84.67;101457.94;5031530;28;20089;-83
2021/06/12 06:20:34;;;;;;;10.43;9.00;;;;;;;19.29;83.16;101454.69;5031189;28;20025;-84
2021/06/12 06:22:59;;;;;;;9.45;8.45;;;;;;;19.55;81.85;101458.75;5029161;28;20095;-84
2021/06/12 06:25:25;;;;;;;10.43;7.72;;;;;;;19.60;80.96;101466.84;5036241;28;20176;-83
2021/06/12 06:27:51;;;;;;;8.45;7.47;;;;;;;19.48;80.99;101468.34;5030760;28;20264;-84
2021/06/12 06:30:17;;;;;;;10.77;7.68;;;;;;;19.56;80.68;101471.22;5032565;28;20028;-83
2021/06/12 06:32:42;;;;;;;8.95;7.63;;;;;;;19.49;80.97;101468.03;5027638;28;20032;-84
2021/06/12 06:35:10;;;;;;;8.52;7.63;;;;;;;19.31;81.55;101463.38;5031763;28;20037;-84
2021/06/12 06:37:35;;;;;;;9.50;7.55;;;;;;;19.17;81.68;101460.53;5049980;28;20050;-83
2021/06/12 06:40:01;;;;;;;8.50;7.13;;;;;;;19.07;82.21;101459.84;5031030;28;20072;-84
2021/06/12 06:42:26;;;;;;;8.32;7.00;;;;;;;19.08;82.88;101461.44;5042708;28;20025;-84
2021/06/12 06:44:52;;;;;;;8.05;6.88;;;;;;;19.30;81.52;101470.72;5036445;28;20411;-84
2021/06/12 06:47:18;;;;;;;7.25;6.47;;;;;;;19.20;81.34;101461.84;5037588;28;20087;-85
2021/06/12 06:49:43;;;;;;;7.90;7.07;;;;;;;19.24;81.52;101462.91;5036172;28;20021;-84
2021/06/12 06:52:09;;;;;;;7.53;6.75;;;;;;;19.47;80.47;101466.72;5042859;28;20098;-84
2021/06/12 06:54:35;;;;;;;9.63;7.65;;;;;;;19.36;80.98;101466.00;5027560;28;20207;-84
2021/06/12 06:57:00;;;;;;;9.48;8.25;;;;;;;19.59;81.17;101465.25;5023007;28;20025;-83
2021/06/12 06:59:26;;;;;;;10.10;7.40;;;;;;;19.82;79.89;101470.94;5023067;28;20063;-84
2021/06/12 07:01:52;;;;;;;7.95;7.07;;;;;;;19.66;79.35;101478.47;5039604;28;20029;-83
2021/06/12 07:04:20;;;;;;;8.32;7.13;;;;;;;19.82;78.69;101473.66;5030188;28;20032;-84
2021/06/12 07:06:46;;;;;;;8.20;6.50;;;;;;;19.59;78.63;101462.53;5047361;22;20036;-76
2021/06/12 07:09:11;;;;;;;7.72;6.32;;;;;;;19.51;78.93;101462.31;5038857;28;20021;-76
2021/06/12 07:11:37;;;;;;;6.93;6.22;;;;;;;19.20;79.93;101468.09;5030838;28;20068;-76
2021/06/12 07:14:03;;;;;;;8.52;6.35;;;;;;;19.26;79.73;101463.44;5023274;28;20029;-76
2021/06/12 07:16:29;;;;;;;8.40;6.57;;;;;;;18.99;81.10;101462.06;5024179;28;20060;-76
2021/06/12 07:18:57;;;;;;;8.00;6.82;;;;;;;19.04;80.86;101463.13;5006639;28;20467;-76
2021/06/12 07:21:22;;;;;;;8.07;6.35;;;;;;;19.11;80.45;101463.59;5024127;28;20035;-76
2021/06/12 07:23:48;;;;;;;8.23;6.68;;;;;;;18.97;81.30;101458.81;5024411;28;20488;-76
2021/06/12 07:26:13;;;;;;;7.95;7.13;;;;;;;19.13;80.57;101461.41;5000801;28;20037;-74
2021/06/12 07:28:39;;;;;;;9.32;7.22;;;;;;;19.18;80.97;101456.69;5001658;28;20156;-77
2021/06/12 07:31:04;;;;;;;7.97;6.82;;;;;;;19.37;80.13;101451.31;5010757;28;20542;-75
2021/06/12 07:33:30;;;;;;;7.93;6.97;;;;;;;19.19;80.99;101454.78;5022665;28;20114;-76
2021/06/12 07:35:56;;;;;;;6.93;6.22;;;;;;;19.18;81.11;101445.03;5018878;28;20022;-77
2021/06/12 07:38:54;;;;;;;7.47;6.68;;;;;;;19.21;80.84;101442.56;5019568;28;20448;-85
2021/06/12 07:41:19;;;;;;;7.63;5.90;;;;;;;19.36;79.77;101449.72;5001154;28;20495;-85
2021/06/12 07:44:24;;;;;;;7.03;6.32;;;;;;;19.57;79.06;101444.91;5001255;28;20037;-88
2021/06/12 07:47:03;;;;;;;7.15;6.18;;;;;;;19.78;77.94;101440.00;5000951;28;20064;-88
2021/06/12 07:49:31;;;;;;;6.50;5.82;;;;;;;19.67;78.50;101433.06;5007134;28;20180;-89
2021/06/12 07:51:58;;;;;;;8.02;6.40;;;;;;;19.82;78.02;101439.09;5003931;28;20415;-89
2021/06/12 07:54:23;;;;;;;7.32;6.63;;;;;;;19.64;78.58;101433.66;5024619;28;20108;-90
2021/06/12 07:56:49;;;;;;;7.28;6.05;;;;;;;19.80;77.52;101438.59;5008514;28;20567;-90
2021/06/12 07:59:18;;;;;;;7.28;6.57;;;;;;;19.84;77.31;101438.81;4999535;28;20029;-90
2021/06/12 08:01:46;;;;;;;10.10;6.03;;;;;;;20.01;76.45;101439.09;5024145;28;20104;-91
2021/06/12 08:04:12;;;;;;;7.80;6.30;;;;;;;20.13;76.12;101435.94;5015179;28;20025;-90
2021/06/12 08:06:38;;;;;;;7.28;6.07;;;;;;;20.30;75.41;101430.78;5013004;28;20435;-88
2021/06/12 08:09:04;;;;;;;6.70;5.88;;;;;;;20.11;74.10;101417.22;5013149;28;20095;-89
2021/06/12 08:11:30;;;;;;;6.97;6.28;;;;;;;19.87;75.64;101428.16;5011200;28;20610;-89
2021/06/12 08:14:00;;;;;;;7.78;6.93;;;;;;;19.70;76.76;101424.31;5013771;28;20091;-89
2021/06/12 08:16:28;;;;;;;7.93;7.13;;;;;;;19.67;76.60;101422.19;5028045;28;20029;-89
2021/06/12 08:18:54;;;;;;;8.50;6.95;;;;;;;19.66;76.67;101417.84;5030935;28;20021;-89
2021/06/12 08:21:19;;;;;;;8.32;6.72;;;;;;;19.83;76.46;101418.16;5026101;28;20040;-91
2021/06/12 08:23:45;;;;;;;7.63;6.07;;;;;;;19.89;74.24;101403.38;5006314;28;20036;-90
2021/06/12 08:26:11;;;;;;;11.63;6.05;;;;;;;19.91;74.10;101406.59;5008142;28;20302;-89
2021/06/12 08:28:36;;;;;;;7.75;6.55;;;;;;;20.13;73.49;101395.94;5007717;28;20024;-89
2021/06/12 08:31:04;;;;;;;8.73;6.28;;;;;;;20.27;73.39;101401.41;5006269;28;20411;-89
2021/06/12 08:33:30;;;;;;;8.48;6.78;;;;;;;20.35;72.85;101391.78;5008713;28;20513;-89
2021/06/12 08:35:55;;;;;;;8.63;6.07;;;;;;;20.28;72.24;101388.63;5010345;28;20040;-89
2021/06/12 08:38:21;;;;;;;7.18;5.82;;;;;;;20.32;72.20;101382.31;5010754;28;20109;-89
2021/06/12 08:40:48;;;;;;;7.60;6.00;;;;;;;20.32;72.94;101390.47;5003482;28;20099;-89
2021/06/12 08:43:27;;;;;;;6.60;5.60;;;;;;;20.17;72.32;101386.09;5010218;28;20627;-89
2021/06/12 08:45:54;;;;;;;6.45;5.63;;;;;;;20.05;72.82;101384.91;5022686;28;20411;-90
2021/06/12 08:48:20;;;;;;;8.30;6.25;;;;;;;19.65;74.12;101391.78;5009527;28;20017;-89
2021/06/12 08:50:46;;;;;;;9.02;6.47;;;;;;;19.65;74.00;101386.34;5007989;28;20488;-89
2021/06/12 08:53:12;;;;;;;9.02;5.80;;;;;;;19.51;74.75;101387.03;5009302;28;20033;-89
2021/06/12 08:55:42;;;;;;;8.15;6.15;;;;;;;19.52;74.07;101385.91;5008678;28;20025;-89
2021/06/12 08:58:08;;;;;;;7.32;5.88;;;;;;;19.57;74.18;101379.66;5014197;28;20037;-89
2021/06/12 09:00:34;;;;;;;7.82;6.43;;;;;;;19.58;74.44;101381.28;5003840;28;20033;-89
2021/06/12 09:03:03;;;;;;;7.72;5.63;;;;;;;19.56;74.58;101378.81;5008722;28;20089;-89
2021/06/12 09:05:37;;;;;;;7.13;6.43;;;;;;;19.21;74.90;101390.94;5021815;28;20119;-90
2021/06/12 09:08:07;;;;;;;9.40;6.20;;;;;;;19.16;74.14;101384.75;5024957;28;20472;-90
2021/06/12 09:10:33;;;;;;;7.00;5.93;;;;;;;19.03;74.90;101386.28;5027837;28;20018;-89
2021/06/12 09:13:00;;;;;;;7.28;5.80;;;;;;;18.92;75.50;101391.00;5009703;28;20028;-89
2021/06/12 09:15:26;;;;;;;7.50;5.97;;;;;;;18.82;76.15;101399.25;5005477;28;20029;-89
2021/06/12 09:17:52;;;;;;;10.85;7.07;;;;;;;18.57;79.93;101399.47;5010717;28;20041;-90
2021/06/12 09:20:42;;;;;;;11.52;8.80;;;;;;;17.58;88.35;101412.31;5013375;28;20047;-91
2021/06/12 09:23:12;;;;;;;9.38;6.72;;;;;;;17.55;87.97;101410.19;5022193;28;20596;-90
2021/06/12 09:25:48;;;;;;;4.72;3.10;;;;;;;17.32;85.21;101414.34;5020892;28;20063;-90
2021/06/12 09:28:19;;;;;;;4.72;3.78;;;;;;;17.17;85.97;101415.22;5027003;28;20048;-90
2021/06/12 09:30:45;;;;;;;7.93;4.57;;;;;;;17.02;87.70;101426.88;5037040;28;20183;-90
2021/06/12 09:33:10;;;;;;;4.40;3.95;;;;;;;16.81;88.26;101422.59;5032861;28;20112;-90
2021/06/12 09:35:44;;;;;;;6.97;4.63;;;;;;;16.77;87.96;101421.53;5025472;28;20071;-89
2021/06/12 09:38:25;;;;;;;5.72;3.90;;;;;;;16.64;88.41;101425.56;5038650;28;20068;-89
2021/06/12 09:40:51;;;;;;;4.30;3.60;;;;;;;16.49;88.95;101430.97;5002316;28;20108;-90
2021/06/12 09:43:31;;;;;;;5.70;3.63;;;;;;;16.45;89.58;101429.91;5017787;28;20114;-91
2021/06/12 09:45:57;;;;;;;6.80;4.85;;;;;;;16.42;90.30;101441.25;5018386;28;20506;-91
2021/06/12 09:48:23;;;;;;;7.18;4.88;;;;;;;16.43;90.68;101437.47;5013093;28;20022;-89
2021/06/12 09:51:08;;;;;;;8.65;5.53;;;;;;;16.30;91.77;101442.34;5018560;28;20041;-89
2021/06/12 09:53:46;;;;;;;7.80;5.55;;;;;;;16.15;92.37;101444.19;5013265;28;20025;-89
2021/06/12 09:56:12;;;;;;;6.43;5.10;;;;;;;16.04;92.84;101445.28;5016676;28;20502;-90
2021/06/12 09:58:38;;;;;;;7.78;5.47;;;;;;;15.89;94.24;101438.75;5003870;28;20388;-90
2021/06/12 10:01:14;;;;;;;7.88;5.70;;;;;;;15.83;95.79;101439.03;5031977;28;20053;-89
2021/06/12 10:03:40;;;;;;;8.00;5.95;;;;;;;15.91;95.48;101427.69;5023144;28;20055;-89
2021/06/12 10:06:19;;;;;;;7.07;4.65;;;;;;;15.94;95.07;101430.66;5022176;28;20116;-91
2021/06/12 10:08:49;;;;;;;8.18;5.25;;;;;;;15.94;94.95;101424.44;5015747;28;20022;-89
2021/06/12 10:11:15;;;;;;;7.82;5.53;;;;;;;15.92;95.11;101424.72;5029634;28;20486;-89
2021/06/12 10:13:45;;;;;;;6.03;5.35;;;;;;;16.00;94.52;101424.19;5023399;28;20033;-89
2021/06/12 10:16:12;;;;;;;7.53;5.57;;;;;;;16.08;94.30;101430.94;5018404;28;20028;-89
2021/06/12 10:18:43;;;;;;;6.85;5.25;;;;;;;16.08;93.66;101422.03;5029878;28;20033;-90
2021/06/12 10:21:16;;;;;;;5.25;4.75;;;;;;;15.91;93.69;101430.38;5017732;28;20025;-89
2021/06/12 10:23:43;;;;;;;8.23;5.03;;;;;;;16.04;93.55;101429.06;5017118;28;20588;-89
2021/06/12 10:26:11;;;;;;;6.63;5.18;;;;;;;16.06;93.29;101426.91;5014089;28;20022;-90
2021/06/12 10:28:39;;;;;;;6.63;5.15;;;;;;;16.10;93.47;101433.38;5035642;28;20034;-90
2021/06/12 10:31:11;;;;;;;8.52;5.35;;;;;;;16.22;93.05;101431.25;5030377;28;20464;-89
2021/06/12 10:33:41;;;;;;;7.30;5.18;;;;;;;16.20;92.88;101428.81;5016755;28;20231;-89
2021/06/12 10:36:15;;;;;;;7.03;4.80;;;;;;;16.52;91.59;101431.28;5011273;28;20057;-90
2021/06/12 10:38:41;;;;;;;9.20;5.32;;;;;;;16.80;90.64;101424.50;5022984;28;20030;-89
2021/06/12 10:41:19;;;;;;;5.13;4.63;;;;;;;17.04;89.17;101424.72;5008899;28;20619;-89
2021/06/12 10:43:46;;;;;;;7.13;4.47;;;;;;;17.34;87.69;101423.81;5027180;28;20147;-90
2021/06/12 10:46:15;;;;;;;6.63;4.50;;;;;;;17.57;86.22;101418.84;5038523;28;20033;-89
2021/06/12 10:48:50;;;;;;;4.93;3.97;;;;;;;17.43;84.98;101411.34;5028887;28;20502;-88
2021/06/12 10:51:28;;;;;;;5.40;4.50;;;;;;;17.41;85.53;101404.53;5009336;28;20025;-89
2021/06/12 10:54:23;;;;;;;6.97;4.53;;;;;;;17.55;84.32;101394.72;5013688;28;20056;-88
2021/06/12 10:57:21;;;;;;;4.30;3.90;;;;;;;17.69;83.66;101393.06;5023757;28;20496;-90
2021/06/12 10:59:51;;;;;;;5.45;4.05;;;;;;;17.50;82.69;101389.34;5036694;28;20030;-87
2021/06/12 11:02:39;;;;;;;6.07;4.60;;;;;;;17.26;84.49;101383.78;5019790;28;20501;-90
2021/06/12 11:05:10;;;;;;;5.22;4.50;;;;;;;17.58;83.33;101367.06;5020483;28;20492;-89
2021/06/12 11:07:41;;;;;;;7.43;4.07;;;;;;;17.81;82.51;101365.63;5028601;28;20125;-88
2021/06/12 11:10:19;;;;;;;4.88;4.15;;;;;;;17.90;82.63;101347.66;5016822;28;20021;-88
2021/06/12 11:12:50;;;;;;;4.47;4.07;;;;;;;17.94;81.33;101356.84;5015789;28;20034;-89
2021/06/12 11:16:13;;;;;;;6.45;3.95;;;;;;;17.67;82.55;101360.00;5013111;28;20372;-88
2021/06/12 11:18:39;;;;;;;5.30;4.80;;;;;;;17.73;82.08;101356.19;4957836;28;20031;-89
2021/06/12 11:21:08;;;;;;;5.18;4.38;;;;;;;17.83;81.36;101360.75;5050695;28;20081;-94
2021/06/12 11:23:55;;;;;;;5.43;4.05;;;;;;;17.96;81.41;101351.16;5039964;28;20036;-89
2021/06/12 11:26:21;;;;;;;5.90;5.13;;;;;;;18.23;80.16;101350.66;5052909;28;20463;-89
2021/06/12 11:29:07;;;;;;;5.85;4.72;;;;;;;18.14;79.99;101353.19;5035923;28;20021;-89
2021/06/12 11:31:37;;;;;;;5.85;4.47;;;;;;;18.41;79.71;101353.47;5052743;28;20588;-89